sensor_id;sensor_type;location;lat;lon;timestamp;temperature;humidity
24217;DHT22;12356;49.386;8.688;2023-12-07T00:01:36;5.80;53.70
24217;DHT22;12356;49.386;8.688;2023-12-07T00:04:07;5.90;54.00
24217;DHT22;12356;49.386;8.688;2023-12-07T00:06:38;5.90;52.90
24217;DHT22;12356;49.386;8.688;2023-12-07T00:09:08;5.90;52.90
24217;DHT22;12356;49.386;8.688;2023-12-07T00:11:39;5.90;53.40
24217;DHT22;12356;49.386;8.688;2023-12-07T00:14:09;5.80;53.20
24217;DHT22;12356;49.386;8.688;2023-12-07T00:16:40;5.90;53.40
24217;DHT22;12356;49.386;8.688;2023-12-07T00:19:11;5.80;53.20
24217;DHT22;12356;49.386;8.688;2023-12-07T00:21:41;5.80;53.70
24217;DHT22;12356;49.386;8.688;2023-12-07T00:24:12;5.90;53.50
24217;DHT22;12356;49.386;8.688;2023-12-07T00:26:42;5.80;53.50
24217;DHT22;12356;49.386;8.688;2023-12-07T00:29:13;5.80;53.70
24217;DHT22;12356;49.386;8.688;2023-12-07T00:31:43;5.80;53.80
24217;DHT22;12356;49.386;8.688;2023-12-07T00:34:14;5.80;53.70
24217;DHT22;12356;49.386;8.688;2023-12-07T00:36:44;5.80;53.60
24217;DHT22;12356;49.386;8.688;2023-12-07T00:39:15;5.80;54.40
24217;DHT22;12356;49.386;8.688;2023-12-07T00:41:47;5.80;54.40
24217;DHT22;12356;49.386;8.688;2023-12-07T00:44:18;5.80;54.10
24217;DHT22;12356;49.386;8.688;2023-12-07T00:46:48;5.80;53.80
24217;DHT22;12356;49.386;8.688;2023-12-07T00:49:19;5.80;53.70
24217;DHT22;12356;49.386;8.688;2023-12-07T00:51:50;5.80;53.10
24217;DHT22;12356;49.386;8.688;2023-12-07T00:54:20;5.80;53.30
24217;DHT22;12356;49.386;8.688;2023-12-07T00:56:51;5.80;52.90
24217;DHT22;12356;49.386;8.688;2023-12-07T00:59:21;5.80;52.70
24217;DHT22;12356;49.386;8.688;2023-12-07T01:01:52;5.80;52.50
24217;DHT22;12356;49.386;8.688;2023-12-07T01:04:22;5.80;52.20
24217;DHT22;12356;49.386;8.688;2023-12-07T01:06:53;5.70;51.50
24217;DHT22;12356;49.386;8.688;2023-12-07T01:09:23;5.70;51.20
24217;DHT22;12356;49.386;8.688;2023-12-07T01:11:54;5.60;50.20
24217;DHT22;12356;49.386;8.688;2023-12-07T01:14:25;5.50;50.50
24217;DHT22;12356;49.386;8.688;2023-12-07T01:16:55;5.50;51.10
24217;DHT22;12356;49.386;8.688;2023-12-07T01:19:26;5.50;51.30
24217;DHT22;12356;49.386;8.688;2023-12-07T01:21:56;5.50;51.10
24217;DHT22;12356;49.386;8.688;2023-12-07T01:24:27;5.40;50.30
24217;DHT22;12356;49.386;8.688;2023-12-07T01:26:58;5.40;49.60
24217;DHT22;12356;49.386;8.688;2023-12-07T01:29:29;5.30;48.90
24217;DHT22;12356;49.386;8.688;2023-12-07T01:31:59;5.30;48.20
24217;DHT22;12356;49.386;8.688;2023-12-07T01:34:30;5.20;47.60
24217;DHT22;12356;49.386;8.688;2023-12-07T01:37:00;5.10;48.80
24217;DHT22;12356;49.386;8.688;2023-12-07T01:39:31;5.00;48.70
24217;DHT22;12356;49.386;8.688;2023-12-07T01:42:01;5.00;49.10
24217;DHT22;12356;49.386;8.688;2023-12-07T01:44:32;5.00;48.90
24217;DHT22;12356;49.386;8.688;2023-12-07T01:47:03;5.00;48.70
24217;DHT22;12356;49.386;8.688;2023-12-07T01:49:35;4.90;47.90
24217;DHT22;12356;49.386;8.688;2023-12-07T01:52:06;4.90;47.70
24217;DHT22;12356;49.386;8.688;2023-12-07T01:54:38;4.90;47.40
24217;DHT22;12356;49.386;8.688;2023-12-07T01:57:09;4.90;47.70
24217;DHT22;12356;49.386;8.688;2023-12-07T01:59:39;4.80;47.70
24217;DHT22;12356;49.386;8.688;2023-12-07T02:02:10;4.80;47.90
24217;DHT22;12356;49.386;8.688;2023-12-07T02:04:41;4.90;48.60
24217;DHT22;12356;49.386;8.688;2023-12-07T02:07:12;4.90;48.00
24217;DHT22;12356;49.386;8.688;2023-12-07T02:09:42;4.80;47.60
24217;DHT22;12356;49.386;8.688;2023-12-07T02:12:13;4.80;47.10
24217;DHT22;12356;49.386;8.688;2023-12-07T02:14:43;4.80;47.60
24217;DHT22;12356;49.386;8.688;2023-12-07T02:17:18;4.70;48.10
24217;DHT22;12356;49.386;8.688;2023-12-07T02:20:00;4.80;47.90
24217;DHT22;12356;49.386;8.688;2023-12-07T02:22:43;4.70;47.50
24217;DHT22;12356;49.386;8.688;2023-12-07T02:25:19;4.70;47.70
24217;DHT22;12356;49.386;8.688;2023-12-07T02:27:51;4.60;48.20
24217;DHT22;12356;49.386;8.688;2023-12-07T02:30:22;4.60;48.20
24217;DHT22;12356;49.386;8.688;2023-12-07T02:32:53;4.60;48.30
24217;DHT22;12356;49.386;8.688;2023-12-07T02:35:24;4.60;48.10
24217;DHT22;12356;49.386;8.688;2023-12-07T02:37:55;4.60;48.20
24217;DHT22;12356;49.386;8.688;2023-12-07T02:40:27;4.60;48.40
24217;DHT22;12356;49.386;8.688;2023-12-07T02:42:59;4.60;48.30
24217;DHT22;12356;49.386;8.688;2023-12-07T02:45:31;4.60;48.30
24217;DHT22;12356;49.386;8.688;2023-12-07T02:48:03;4.60;49.30
24217;DHT22;12356;49.386;8.688;2023-12-07T02:50:33;4.60;49.60
24217;DHT22;12356;49.386;8.688;2023-12-07T02:53:04;4.70;49.50
24217;DHT22;12356;49.386;8.688;2023-12-07T02:55:34;4.70;49.90
24217;DHT22;12356;49.386;8.688;2023-12-07T02:58:05;4.70;51.50
24217;DHT22;12356;49.386;8.688;2023-12-07T03:00:37;4.70;51.60
24217;DHT22;12356;49.386;8.688;2023-12-07T03:03:07;4.70;51.40
24217;DHT22;12356;49.386;8.688;2023-12-07T03:05:38;4.70;51.30
24217;DHT22;12356;49.386;8.688;2023-12-07T03:08:08;4.70;51.20
24217;DHT22;12356;49.386;8.688;2023-12-07T03:10:39;4.80;51.90
24217;DHT22;12356;49.386;8.688;2023-12-07T03:13:09;4.80;51.90
24217;DHT22;12356;49.386;8.688;2023-12-07T03:15:40;4.80;52.00
24217;DHT22;12356;49.386;8.688;2023-12-07T03:18:10;4.90;52.60
24217;DHT22;12356;49.386;8.688;2023-12-07T03:20:41;4.80;52.40
24217;DHT22;12356;49.386;8.688;2023-12-07T03:23:12;4.80;52.30
24217;DHT22;12356;49.386;8.688;2023-12-07T03:25:42;4.80;52.40
24217;DHT22;12356;49.386;8.688;2023-12-07T03:28:13;4.80;52.80
24217;DHT22;12356;49.386;8.688;2023-12-07T03:30:43;4.70;53.60
24217;DHT22;12356;49.386;8.688;2023-12-07T03:33:14;4.80;53.90
24217;DHT22;12356;49.386;8.688;2023-12-07T03:35:44;4.80;54.10
24217;DHT22;12356;49.386;8.688;2023-12-07T03:38:15;4.80;53.70
24217;DHT22;12356;49.386;8.688;2023-12-07T03:40:45;4.80;53.20
24217;DHT22;12356;49.386;8.688;2023-12-07T03:43:19;4.80;53.30
24217;DHT22;12356;49.386;8.688;2023-12-07T03:45:50;4.80;53.20
24217;DHT22;12356;49.386;8.688;2023-12-07T03:48:20;4.90;53.30
24217;DHT22;12356;49.386;8.688;2023-12-07T03:50:51;4.90;52.70
24217;DHT22;12356;49.386;8.688;2023-12-07T03:53:21;4.90;52.60
24217;DHT22;12356;49.386;8.688;2023-12-07T03:55:52;4.80;52.30
24217;DHT22;12356;49.386;8.688;2023-12-07T03:58:22;4.90;52.30
24217;DHT22;12356;49.386;8.688;2023-12-07T04:00:53;4.90;52.30
24217;DHT22;12356;49.386;8.688;2023-12-07T04:03:24;4.90;53.00
24217;DHT22;12356;49.386;8.688;2023-12-07T04:05:54;4.90;53.20
24217;DHT22;12356;49.386;8.688;2023-12-07T04:08:25;4.80;52.80
24217;DHT22;12356;49.386;8.688;2023-12-07T04:10:55;4.80;54.00
24217;DHT22;12356;49.386;8.688;2023-12-07T04:13:26;4.80;53.80
24217;DHT22;12356;49.386;8.688;2023-12-07T04:15:56;4.80;53.20
24217;DHT22;12356;49.386;8.688;2023-12-07T04:18:27;4.80;53.70
24217;DHT22;12356;49.386;8.688;2023-12-07T04:20:57;4.80;53.10
24217;DHT22;12356;49.386;8.688;2023-12-07T04:23:28;4.80;53.10
24217;DHT22;12356;49.386;8.688;2023-12-07T04:25:59;4.80;53.30
24217;DHT22;12356;49.386;8.688;2023-12-07T04:28:29;4.80;53.70
24217;DHT22;12356;49.386;8.688;2023-12-07T04:31:00;4.80;53.60
24217;DHT22;12356;49.386;8.688;2023-12-07T04:33:30;4.80;52.90
24217;DHT22;12356;49.386;8.688;2023-12-07T04:36:01;4.80;52.50
24217;DHT22;12356;49.386;8.688;2023-12-07T04:38:34;4.80;52.30
24217;DHT22;12356;49.386;8.688;2023-12-07T04:41:04;4.70;52.40
24217;DHT22;12356;49.386;8.688;2023-12-07T04:43:35;4.70;52.20
24217;DHT22;12356;49.386;8.688;2023-12-07T04:46:05;4.70;51.70
24217;DHT22;12356;49.386;8.688;2023-12-07T04:48:36;4.70;51.80
24217;DHT22;12356;49.386;8.688;2023-12-07T04:51:06;4.70;51.10
24217;DHT22;12356;49.386;8.688;2023-12-07T04:53:37;4.70;50.00
24217;DHT22;12356;49.386;8.688;2023-12-07T04:56:08;4.70;48.70
24217;DHT22;12356;49.386;8.688;2023-12-07T04:58:38;4.60;49.60
24217;DHT22;12356;49.386;8.688;2023-12-07T05:01:09;4.60;50.60
24217;DHT22;12356;49.386;8.688;2023-12-07T05:03:40;4.60;50.10
24217;DHT22;12356;49.386;8.688;2023-12-07T05:06:10;4.50;48.40
24217;DHT22;12356;49.386;8.688;2023-12-07T05:08:41;4.40;48.00
24217;DHT22;12356;49.386;8.688;2023-12-07T05:11:11;4.30;48.00
24217;DHT22;12356;49.386;8.688;2023-12-07T05:13:42;4.30;47.90
24217;DHT22;12356;49.386;8.688;2023-12-07T05:16:13;4.40;48.30
24217;DHT22;12356;49.386;8.688;2023-12-07T05:18:44;4.30;48.80
24217;DHT22;12356;49.386;8.688;2023-12-07T05:21:14;4.30;49.30
24217;DHT22;12356;49.386;8.688;2023-12-07T05:23:45;4.30;49.60
24217;DHT22;12356;49.386;8.688;2023-12-07T05:26:15;4.30;50.00
24217;DHT22;12356;49.386;8.688;2023-12-07T05:28:46;4.30;48.50
24217;DHT22;12356;49.386;8.688;2023-12-07T05:31:17;4.40;48.10
24217;DHT22;12356;49.386;8.688;2023-12-07T05:33:48;4.30;48.00
24217;DHT22;12356;49.386;8.688;2023-12-07T05:36:19;4.30;48.00
24217;DHT22;12356;49.386;8.688;2023-12-07T05:38:49;4.40;48.80
24217;DHT22;12356;49.386;8.688;2023-12-07T05:41:20;4.30;47.40
24217;DHT22;12356;49.386;8.688;2023-12-07T05:43:51;4.30;46.60
24217;DHT22;12356;49.386;8.688;2023-12-07T05:46:22;4.20;45.40
24217;DHT22;12356;49.386;8.688;2023-12-07T05:48:53;4.20;44.50
24217;DHT22;12356;49.386;8.688;2023-12-07T05:51:24;4.20;44.10
24217;DHT22;12356;49.386;8.688;2023-12-07T05:53:54;4.10;43.10
24217;DHT22;12356;49.386;8.688;2023-12-07T05:56:25;4.00;43.20
24217;DHT22;12356;49.386;8.688;2023-12-07T05:58:55;3.90;44.00
24217;DHT22;12356;49.386;8.688;2023-12-07T06:01:27;3.90;45.60
24217;DHT22;12356;49.386;8.688;2023-12-07T06:03:58;3.90;45.70
24217;DHT22;12356;49.386;8.688;2023-12-07T06:06:28;3.90;45.30
24217;DHT22;12356;49.386;8.688;2023-12-07T06:08:59;4.00;44.30
24217;DHT22;12356;49.386;8.688;2023-12-07T06:11:30;4.00;43.50
24217;DHT22;12356;49.386;8.688;2023-12-07T06:14:01;3.90;43.30
24217;DHT22;12356;49.386;8.688;2023-12-07T06:16:33;3.80;43.20
24217;DHT22;12356;49.386;8.688;2023-12-07T06:19:03;3.70;44.30
24217;DHT22;12356;49.386;8.688;2023-12-07T06:21:34;3.80;44.20
24217;DHT22;12356;49.386;8.688;2023-12-07T06:24:04;3.70;43.30
24217;DHT22;12356;49.386;8.688;2023-12-07T06:26:35;3.70;43.50
24217;DHT22;12356;49.386;8.688;2023-12-07T06:29:06;3.70;43.80
24217;DHT22;12356;49.386;8.688;2023-12-07T06:31:43;3.80;43.70
24217;DHT22;12356;49.386;8.688;2023-12-07T06:34:13;3.70;43.10
24217;DHT22;12356;49.386;8.688;2023-12-07T06:36:44;3.80;43.40
24217;DHT22;12356;49.386;8.688;2023-12-07T06:39:14;3.80;43.00
24217;DHT22;12356;49.386;8.688;2023-12-07T06:41:45;3.70;42.40
24217;DHT22;12356;49.386;8.688;2023-12-07T06:44:15;3.60;42.50
24217;DHT22;12356;49.386;8.688;2023-12-07T06:46:46;3.60;42.90
24217;DHT22;12356;49.386;8.688;2023-12-07T06:49:16;3.60;42.40
24217;DHT22;12356;49.386;8.688;2023-12-07T06:51:47;3.60;42.20
24217;DHT22;12356;49.386;8.688;2023-12-07T06:54:17;3.60;42.00
24217;DHT22;12356;49.386;8.688;2023-12-07T06:56:48;3.50;41.90
24217;DHT22;12356;49.386;8.688;2023-12-07T06:59:18;3.50;41.80
24217;DHT22;12356;49.386;8.688;2023-12-07T07:01:50;3.50;40.30
24217;DHT22;12356;49.386;8.688;2023-12-07T07:04:20;3.50;41.10
24217;DHT22;12356;49.386;8.688;2023-12-07T07:06:51;3.50;41.00
24217;DHT22;12356;49.386;8.688;2023-12-07T07:09:22;3.50;41.30
24217;DHT22;12356;49.386;8.688;2023-12-07T07:11:52;3.40;41.80
24217;DHT22;12356;49.386;8.688;2023-12-07T07:14:23;3.40;43.50
24217;DHT22;12356;49.386;8.688;2023-12-07T07:16:54;3.40;44.60
24217;DHT22;12356;49.386;8.688;2023-12-07T07:19:24;3.40;45.20
24217;DHT22;12356;49.386;8.688;2023-12-07T07:21:55;3.50;45.30
24217;DHT22;12356;49.386;8.688;2023-12-07T07:24:26;3.60;46.60
24217;DHT22;12356;49.386;8.688;2023-12-07T07:26:56;3.50;46.20
24217;DHT22;12356;49.386;8.688;2023-12-07T07:29:27;3.60;46.60
24217;DHT22;12356;49.386;8.688;2023-12-07T07:31:58;3.70;46.30
24217;DHT22;12356;49.386;8.688;2023-12-07T07:34:28;3.70;46.60
24217;DHT22;12356;49.386;8.688;2023-12-07T07:36:59;3.70;46.60
24217;DHT22;12356;49.386;8.688;2023-12-07T07:39:29;3.80;47.20
24217;DHT22;12356;49.386;8.688;2023-12-07T07:42:00;3.70;46.70
24217;DHT22;12356;49.386;8.688;2023-12-07T07:44:31;3.80;47.30
24217;DHT22;12356;49.386;8.688;2023-12-07T07:47:01;3.70;47.20
24217;DHT22;12356;49.386;8.688;2023-12-07T07:49:32;3.70;46.40
24217;DHT22;12356;49.386;8.688;2023-12-07T07:52:02;3.70;46.50
24217;DHT22;12356;49.386;8.688;2023-12-07T07:54:35;3.70;46.00
24217;DHT22;12356;49.386;8.688;2023-12-07T07:57:07;3.70;46.40
24217;DHT22;12356;49.386;8.688;2023-12-07T07:59:37;3.70;46.10
24217;DHT22;12356;49.386;8.688;2023-12-07T08:02:08;3.80;46.40
24217;DHT22;12356;49.386;8.688;2023-12-07T08:04:38;3.80;46.60
24217;DHT22;12356;49.386;8.688;2023-12-07T08:07:09;3.80;46.50
24217;DHT22;12356;49.386;8.688;2023-12-07T08:09:41;3.80;46.40
24217;DHT22;12356;49.386;8.688;2023-12-07T08:12:12;3.80;46.20
24217;DHT22;12356;49.386;8.688;2023-12-07T08:14:42;3.80;46.30
24217;DHT22;12356;49.386;8.688;2023-12-07T08:17:14;3.80;47.50
24217;DHT22;12356;49.386;8.688;2023-12-07T08:19:45;3.80;47.50
24217;DHT22;12356;49.386;8.688;2023-12-07T08:22:16;3.80;47.50
24217;DHT22;12356;49.386;8.688;2023-12-07T08:24:46;3.80;47.30
24217;DHT22;12356;49.386;8.688;2023-12-07T08:27:17;3.80;46.90
24217;DHT22;12356;49.386;8.688;2023-12-07T08:29:48;3.80;46.50
24217;DHT22;12356;49.386;8.688;2023-12-07T08:32:18;3.80;46.40
24217;DHT22;12356;49.386;8.688;2023-12-07T08:34:49;3.90;46.70
24217;DHT22;12356;49.386;8.688;2023-12-07T08:37:20;3.90;47.60
24217;DHT22;12356;49.386;8.688;2023-12-07T08:39:50;4.00;47.70
24217;DHT22;12356;49.386;8.688;2023-12-07T08:42:21;3.90;47.80
24217;DHT22;12356;49.386;8.688;2023-12-07T08:44:52;3.90;47.40
24217;DHT22;12356;49.386;8.688;2023-12-07T08:47:23;3.90;48.40
24217;DHT22;12356;49.386;8.688;2023-12-07T08:49:53;3.90;48.90
24217;DHT22;12356;49.386;8.688;2023-12-07T08:52:24;4.00;49.20
24217;DHT22;12356;49.386;8.688;2023-12-07T08:54:55;4.10;49.20
24217;DHT22;12356;49.386;8.688;2023-12-07T08:57:25;4.00;49.50
24217;DHT22;12356;49.386;8.688;2023-12-07T08:59:56;4.10;49.90
24217;DHT22;12356;49.386;8.688;2023-12-07T09:02:28;4.10;49.90
24217;DHT22;12356;49.386;8.688;2023-12-07T09:04:59;4.20;49.90
24217;DHT22;12356;49.386;8.688;2023-12-07T09:07:29;4.20;50.00
24217;DHT22;12356;49.386;8.688;2023-12-07T09:10:00;4.20;50.10
24217;DHT22;12356;49.386;8.688;2023-12-07T09:12:31;4.30;50.10
24217;DHT22;12356;49.386;8.688;2023-12-07T09:15:02;4.50;50.20
24217;DHT22;12356;49.386;8.688;2023-12-07T09:17:34;4.30;49.00
24217;DHT22;12356;49.386;8.688;2023-12-07T09:20:08;4.40;49.10
24217;DHT22;12356;49.386;8.688;2023-12-07T09:22:45;4.50;48.90
24217;DHT22;12356;49.386;8.688;2023-12-07T09:25:16;4.50;48.20
24217;DHT22;12356;49.386;8.688;2023-12-07T09:27:47;4.50;47.70
24217;DHT22;12356;49.386;8.688;2023-12-07T09:30:18;4.50;47.60
24217;DHT22;12356;49.386;8.688;2023-12-07T09:32:49;4.50;48.40
24217;DHT22;12356;49.386;8.688;2023-12-07T09:35:19;4.40;48.10
24217;DHT22;12356;49.386;8.688;2023-12-07T09:37:50;4.40;48.20
24217;DHT22;12356;49.386;8.688;2023-12-07T09:40:22;4.40;48.00
24217;DHT22;12356;49.386;8.688;2023-12-07T09:42:54;4.40;47.20
24217;DHT22;12356;49.386;8.688;2023-12-07T09:45:25;4.50;48.20
24217;DHT22;12356;49.386;8.688;2023-12-07T09:47:56;4.40;48.00
24217;DHT22;12356;49.386;8.688;2023-12-07T09:50:27;4.40;47.20
24217;DHT22;12356;49.386;8.688;2023-12-07T09:53:00;4.50;46.60
24217;DHT22;12356;49.386;8.688;2023-12-07T09:55:31;4.50;47.00
24217;DHT22;12356;49.386;8.688;2023-12-07T09:58:04;4.60;47.40
24217;DHT22;12356;49.386;8.688;2023-12-07T10:00:36;4.60;47.80
24217;DHT22;12356;49.386;8.688;2023-12-07T10:03:07;4.70;47.90
24217;DHT22;12356;49.386;8.688;2023-12-07T10:06:04;4.70;47.40
24217;DHT22;12356;49.386;8.688;2023-12-07T10:08:35;4.80;45.90
24217;DHT22;12356;49.386;8.688;2023-12-07T10:11:07;4.80;45.00
24217;DHT22;12356;49.386;8.688;2023-12-07T10:13:39;4.80;44.60
24217;DHT22;12356;49.386;8.688;2023-12-07T10:16:13;4.80;44.80
24217;DHT22;12356;49.386;8.688;2023-12-07T10:18:45;4.80;43.30
24217;DHT22;12356;49.386;8.688;2023-12-07T10:21:15;4.80;43.40
24217;DHT22;12356;49.386;8.688;2023-12-07T10:23:46;4.90;44.30
24217;DHT22;12356;49.386;8.688;2023-12-07T10:26:18;5.00;45.00
24217;DHT22;12356;49.386;8.688;2023-12-07T10:28:50;5.00;43.90
24217;DHT22;12356;49.386;8.688;2023-12-07T10:31:25;5.10;44.10
24217;DHT22;12356;49.386;8.688;2023-12-07T10:33:56;5.20;42.50
24217;DHT22;12356;49.386;8.688;2023-12-07T10:36:27;5.20;40.50
24217;DHT22;12356;49.386;8.688;2023-12-07T10:38:58;5.30;39.90
24217;DHT22;12356;49.386;8.688;2023-12-07T10:41:29;5.40;38.80
24217;DHT22;12356;49.386;8.688;2023-12-07T10:44:01;5.40;38.00
24217;DHT22;12356;49.386;8.688;2023-12-07T10:46:33;5.40;37.50
24217;DHT22;12356;49.386;8.688;2023-12-07T10:49:12;5.50;38.20
24217;DHT22;12356;49.386;8.688;2023-12-07T10:52:00;5.70;38.50
24217;DHT22;12356;49.386;8.688;2023-12-07T10:57:31;5.80;36.40
24217;DHT22;12356;49.386;8.688;2023-12-07T11:00:03;5.90;36.00
24217;DHT22;12356;49.386;8.688;2023-12-07T11:02:35;5.90;32.50
24217;DHT22;12356;49.386;8.688;2023-12-07T11:05:07;5.90;32.80
24217;DHT22;12356;49.386;8.688;2023-12-07T11:10:23;6.00;32.00
24217;DHT22;12356;49.386;8.688;2023-12-07T11:13:04;6.00;29.60
24217;DHT22;12356;49.386;8.688;2023-12-07T11:15:37;6.00;26.20
24217;DHT22;12356;49.386;8.688;2023-12-07T11:18:08;5.90;29.20
24217;DHT22;12356;49.386;8.688;2023-12-07T11:20:46;6.00;28.40
24217;DHT22;12356;49.386;8.688;2023-12-07T11:23:18;6.00;28.20
24217;DHT22;12356;49.386;8.688;2023-12-07T11:25:52;6.00;28.10
24217;DHT22;12356;49.386;8.688;2023-12-07T11:28:38;6.00;27.20
24217;DHT22;12356;49.386;8.688;2023-12-07T11:31:10;6.10;29.40
24217;DHT22;12356;49.386;8.688;2023-12-07T11:33:41;6.20;31.20
24217;DHT22;12356;49.386;8.688;2023-12-07T11:36:12;6.10;24.70
24217;DHT22;12356;49.386;8.688;2023-12-07T11:41:35;6.10;25.60
24217;DHT22;12356;49.386;8.688;2023-12-07T11:44:05;6.10;26.00
24217;DHT22;12356;49.386;8.688;2023-12-07T11:46:37;6.20;26.70
24217;DHT22;12356;49.386;8.688;2023-12-07T11:49:08;6.20;25.50
24217;DHT22;12356;49.386;8.688;2023-12-07T11:51:41;6.30;26.50
24217;DHT22;12356;49.386;8.688;2023-12-07T11:54:12;6.30;25.60
24217;DHT22;12356;49.386;8.688;2023-12-07T11:56:45;6.40;26.20
24217;DHT22;12356;49.386;8.688;2023-12-07T11:59:15;6.40;25.60
24217;DHT22;12356;49.386;8.688;2023-12-07T12:01:47;6.30;25.20
24217;DHT22;12356;49.386;8.688;2023-12-07T12:04:19;6.30;26.60
24217;DHT22;12356;49.386;8.688;2023-12-07T12:06:51;6.10;26.80
24217;DHT22;12356;49.386;8.688;2023-12-07T12:09:24;5.90;26.80
24217;DHT22;12356;49.386;8.688;2023-12-07T12:11:56;5.80;27.90
24217;DHT22;12356;49.386;8.688;2023-12-07T12:14:30;5.80;30.40
24217;DHT22;12356;49.386;8.688;2023-12-07T12:17:01;5.80;29.40
24217;DHT22;12356;49.386;8.688;2023-12-07T12:19:32;5.80;29.10
24217;DHT22;12356;49.386;8.688;2023-12-07T12:22:05;5.80;29.40
24217;DHT22;12356;49.386;8.688;2023-12-07T12:24:37;5.80;30.50
24217;DHT22;12356;49.386;8.688;2023-12-07T12:27:09;5.80;30.20
24217;DHT22;12356;49.386;8.688;2023-12-07T12:29:40;5.80;29.40
24217;DHT22;12356;49.386;8.688;2023-12-07T12:32:11;5.80;29.00
24217;DHT22;12356;49.386;8.688;2023-12-07T12:34:41;5.80;31.00
24217;DHT22;12356;49.386;8.688;2023-12-07T12:37:12;5.80;33.10
24217;DHT22;12356;49.386;8.688;2023-12-07T12:39:43;5.90;30.40
24217;DHT22;12356;49.386;8.688;2023-12-07T12:42:13;5.90;30.70
24217;DHT22;12356;49.386;8.688;2023-12-07T12:44:45;5.90;28.60
24217;DHT22;12356;49.386;8.688;2023-12-07T12:47:15;5.80;27.80
24217;DHT22;12356;49.386;8.688;2023-12-07T12:49:46;5.70;28.00
24217;DHT22;12356;49.386;8.688;2023-12-07T12:52:17;5.70;28.10
24217;DHT22;12356;49.386;8.688;2023-12-07T12:54:47;5.80;28.70
24217;DHT22;12356;49.386;8.688;2023-12-07T12:57:19;5.70;29.30
24217;DHT22;12356;49.386;8.688;2023-12-07T12:59:53;5.70;29.50
24217;DHT22;12356;49.386;8.688;2023-12-07T13:02:24;5.70;28.70
24217;DHT22;12356;49.386;8.688;2023-12-07T13:04:55;5.80;27.40
24217;DHT22;12356;49.386;8.688;2023-12-07T13:07:28;5.70;26.70
24217;DHT22;12356;49.386;8.688;2023-12-07T13:09:59;5.70;27.50
24217;DHT22;12356;49.386;8.688;2023-12-07T13:12:29;5.90;28.50
24217;DHT22;12356;49.386;8.688;2023-12-07T13:15:05;5.80;28.30
24217;DHT22;12356;49.386;8.688;2023-12-07T13:17:35;5.80;28.10
24217;DHT22;12356;49.386;8.688;2023-12-07T13:20:07;5.80;28.10
24217;DHT22;12356;49.386;8.688;2023-12-07T13:22:41;5.80;27.90
24217;DHT22;12356;49.386;8.688;2023-12-07T13:25:13;5.80;27.60
24217;DHT22;12356;49.386;8.688;2023-12-07T13:27:47;5.80;28.30
24217;DHT22;12356;49.386;8.688;2023-12-07T13:30:17;5.80;28.90
24217;DHT22;12356;49.386;8.688;2023-12-07T13:32:48;5.80;28.10
24217;DHT22;12356;49.386;8.688;2023-12-07T13:35:20;5.80;27.80
24217;DHT22;12356;49.386;8.688;2023-12-07T13:37:50;5.90;26.60
24217;DHT22;12356;49.386;8.688;2023-12-07T13:40:21;5.90;26.00
24217;DHT22;12356;49.386;8.688;2023-12-07T13:42:52;5.90;25.60
24217;DHT22;12356;49.386;8.688;2023-12-07T13:45:22;5.90;25.60
24217;DHT22;12356;49.386;8.688;2023-12-07T13:47:53;5.90;24.80
24217;DHT22;12356;49.386;8.688;2023-12-07T13:50:24;5.90;24.80
24217;DHT22;12356;49.386;8.688;2023-12-07T13:52:54;5.90;26.00
24217;DHT22;12356;49.386;8.688;2023-12-07T13:55:25;5.90;26.60
24217;DHT22;12356;49.386;8.688;2023-12-07T13:57:56;5.90;27.10
24217;DHT22;12356;49.386;8.688;2023-12-07T14:00:27;5.90;27.00
24217;DHT22;12356;49.386;8.688;2023-12-07T14:02:58;6.00;27.30
24217;DHT22;12356;49.386;8.688;2023-12-07T14:05:29;6.00;26.20
24217;DHT22;12356;49.386;8.688;2023-12-07T14:08:00;6.00;28.20
24217;DHT22;12356;49.386;8.688;2023-12-07T14:10:31;6.00;26.90
24217;DHT22;12356;49.386;8.688;2023-12-07T14:13:01;6.10;27.20
24217;DHT22;12356;49.386;8.688;2023-12-07T14:15:32;6.10;27.50
24217;DHT22;12356;49.386;8.688;2023-12-07T14:18:05;6.10;27.80
24217;DHT22;12356;49.386;8.688;2023-12-07T14:20:36;6.20;28.40
24217;DHT22;12356;49.386;8.688;2023-12-07T14:23:06;6.10;27.70
24217;DHT22;12356;49.386;8.688;2023-12-07T14:25:37;6.10;27.40
24217;DHT22;12356;49.386;8.688;2023-12-07T14:28:10;6.10;27.60
24217;DHT22;12356;49.386;8.688;2023-12-07T14:30:41;6.00;28.40
24217;DHT22;12356;49.386;8.688;2023-12-07T14:33:12;6.10;28.90
24217;DHT22;12356;49.386;8.688;2023-12-07T14:35:42;6.00;28.20
24217;DHT22;12356;49.386;8.688;2023-12-07T14:38:13;6.00;28.90
24217;DHT22;12356;49.386;8.688;2023-12-07T14:40:44;6.00;28.70
24217;DHT22;12356;49.386;8.688;2023-12-07T14:43:14;6.00;28.20
24217;DHT22;12356;49.386;8.688;2023-12-07T14:45:45;5.90;28.10
24217;DHT22;12356;49.386;8.688;2023-12-07T14:48:16;5.90;28.70
24217;DHT22;12356;49.386;8.688;2023-12-07T14:50:47;5.90;29.60
24217;DHT22;12356;49.386;8.688;2023-12-07T14:53:17;5.90;30.70
24217;DHT22;12356;49.386;8.688;2023-12-07T14:55:48;5.90;30.90
24217;DHT22;12356;49.386;8.688;2023-12-07T14:58:20;5.90;31.10
24217;DHT22;12356;49.386;8.688;2023-12-07T15:00:52;6.00;29.50
24217;DHT22;12356;49.386;8.688;2023-12-07T15:03:22;5.90;29.10
24217;DHT22;12356;49.386;8.688;2023-12-07T15:05:53;6.00;28.70
24217;DHT22;12356;49.386;8.688;2023-12-07T15:08:24;6.00;29.90
24217;DHT22;12356;49.386;8.688;2023-12-07T15:10:54;5.90;29.80
24217;DHT22;12356;49.386;8.688;2023-12-07T15:13:26;5.80;30.50
24217;DHT22;12356;49.386;8.688;2023-12-07T15:15:57;5.80;31.40
24217;DHT22;12356;49.386;8.688;2023-12-07T15:18:27;5.80;31.10
24217;DHT22;12356;49.386;8.688;2023-12-07T15:21:02;5.80;31.10
24217;DHT22;12356;49.386;8.688;2023-12-07T15:23:33;5.60;30.70
24217;DHT22;12356;49.386;8.688;2023-12-07T15:26:04;5.60;31.30
24217;DHT22;12356;49.386;8.688;2023-12-07T15:28:35;5.50;31.50
24217;DHT22;12356;49.386;8.688;2023-12-07T15:31:06;5.60;31.90
24217;DHT22;12356;49.386;8.688;2023-12-07T15:33:37;5.60;32.20
24217;DHT22;12356;49.386;8.688;2023-12-07T15:36:08;5.60;32.00
24217;DHT22;12356;49.386;8.688;2023-12-07T15:38:39;5.50;32.40
24217;DHT22;12356;49.386;8.688;2023-12-07T15:41:11;5.50;34.20
24217;DHT22;12356;49.386;8.688;2023-12-07T15:43:41;5.50;33.40
24217;DHT22;12356;49.386;8.688;2023-12-07T15:46:12;5.40;33.00
24217;DHT22;12356;49.386;8.688;2023-12-07T15:48:42;5.30;32.50
24217;DHT22;12356;49.386;8.688;2023-12-07T15:51:13;5.30;33.00
24217;DHT22;12356;49.386;8.688;2023-12-07T15:53:44;5.30;33.30
24217;DHT22;12356;49.386;8.688;2023-12-07T15:56:14;5.20;33.50
24217;DHT22;12356;49.386;8.688;2023-12-07T15:58:45;5.30;34.40
24217;DHT22;12356;49.386;8.688;2023-12-07T16:01:15;5.20;35.40
24217;DHT22;12356;49.386;8.688;2023-12-07T16:03:46;5.30;35.40
24217;DHT22;12356;49.386;8.688;2023-12-07T16:06:16;5.20;34.70
24217;DHT22;12356;49.386;8.688;2023-12-07T16:08:47;5.20;36.10
24217;DHT22;12356;49.386;8.688;2023-12-07T16:11:18;5.10;36.20
24217;DHT22;12356;49.386;8.688;2023-12-07T16:13:48;5.10;36.90
24217;DHT22;12356;49.386;8.688;2023-12-07T16:16:19;5.10;36.80
24217;DHT22;12356;49.386;8.688;2023-12-07T16:18:51;5.10;36.90